Time;durP1;ratioP1;P1;durP2;ratioP2;P2;SDS_P1;SDS_P2;PMS_P1;PMS_P2;Temp;Humidity;BMP_temperature;BMP_pressure;BME280_temperature;BME280_humidity;BME280_pressure;Samples;Min_cycle;Max_cycle;Signal;HPM_P1;HPM_P2
2024/03/03 00:00:42;;;;;;;28.50;22.10;;;;;;;;;;4912308;29;20566;-87
2024/03/03 00:03:07;;;;;;;28.50;20.63;;;;;;;;;;4925865;28;20227;-86
2024/03/03 00:05:33;;;;;;;27.53;21.33;;;;;;;;;;4907733;29;20231;-86
2024/03/03 00:08:03;;;;;;;26.80;21.73;;;;;;;;;;4908533;29;20235;-86
2024/03/03 00:10:31;;;;;;;29.83;22.13;;;;;;;;;;4903725;29;20238;-86
2024/03/03 00:12:59;;;;;;;28.77;21.67;;;;;;;;;;4922561;29;20291;-85
2024/03/03 00:15:25;;;;;;;26.67;21.43;;;;;;;;;;4905198;28;20227;-86
2024/03/03 00:17:50;;;;;;;27.77;22.07;;;;;;;;;;4930343;28;20223;-87
2024/03/03 00:20:16;;;;;;;28.60;22.37;;;;;;;;;;4926762;28;20227;-86
2024/03/03 00:22:41;;;;;;;29.60;22.53;;;;;;;;;;4920778;28;20223;-85
2024/03/03 00:25:09;;;;;;;29.00;22.67;;;;;;;;;;4924386;28;20231;-87
2024/03/03 00:27:35;;;;;;;30.20;22.57;;;;;;;;;;4909732;29;20242;-86
2024/03/03 00:30:00;;;;;;;32.70;22.43;;;;;;;;;;4921405;29;20290;-85
2024/03/03 00:32:27;;;;;;;30.00;23.10;;;;;;;;;;4905435;28;20224;-84
2024/03/03 00:34:53;;;;;;;31.37;22.37;;;;;;;;;;4927924;28;20223;-85
2024/03/03 00:37:18;;;;;;;29.53;22.50;;;;;;;;;;4893814;28;20228;-86
2024/03/03 00:39:46;;;;;;;30.83;23.20;;;;;;;;;;4912379;29;20235;-87
2024/03/03 00:42:14;;;;;;;31.17;22.40;;;;;;;;;;4888493;28;20228;-84
2024/03/03 00:44:40;;;;;;;29.37;22.17;;;;;;;;;;4911808;29;20231;-84
2024/03/03 00:47:06;;;;;;;29.03;23.43;;;;;;;;;;4911149;28;20233;-84
2024/03/03 00:49:34;;;;;;;31.30;23.37;;;;;;;;;;4924621;29;20223;-85
2024/03/03 00:51:59;;;;;;;30.80;23.00;;;;;;;;;;4908406;29;20226;-86
2024/03/03 00:54:25;;;;;;;29.87;23.13;;;;;;;;;;4911928;28;20223;-85
2024/03/03 00:56:53;;;;;;;30.50;22.93;;;;;;;;;;4927303;29;20245;-85
2024/03/03 00:59:20;;;;;;;31.60;23.73;;;;;;;;;;4907330;29;20220;-86
2024/03/03 01:01:46;;;;;;;33.33;23.30;;;;;;;;;;4924390;29;20622;-86
2024/03/03 01:04:12;;;;;;;32.73;23.17;;;;;;;;;;4929956;28;20311;-85
2024/03/03 01:06:43;;;;;;;33.40;22.77;;;;;;;;;;4931151;29;20333;-85
2024/03/03 01:09:11;;;;;;;30.87;23.13;;;;;;;;;;4909430;28;20247;-84
2024/03/03 01:11:38;;;;;;;30.03;22.93;;;;;;;;;;4907725;29;20235;-85
2024/03/03 01:14:03;;;;;;;32.70;23.43;;;;;;;;;;4899439;28;20230;-83
2024/03/03 01:16:29;;;;;;;31.43;23.03;;;;;;;;;;4889177;29;20223;-84
2024/03/03 01:18:57;;;;;;;32.93;23.80;;;;;;;;;;4894000;29;20215;-85
2024/03/03 01:21:23;;;;;;;29.13;22.80;;;;;;;;;;4914775;28;20219;-83
2024/03/03 01:23:48;;;;;;;31.13;23.33;;;;;;;;;;4924507;29;20242;-85
2024/03/03 01:26:14;;;;;;;33.53;24.83;;;;;;;;;;4912055;28;20235;-83
2024/03/03 01:28:41;;;;;;;29.97;23.60;;;;;;;;;;4931381;29;20286;-87
2024/03/03 01:31:09;;;;;;;31.33;23.77;;;;;;;;;;4912449;28;20227;-83
2024/03/03 01:33:37;;;;;;;31.33;23.27;;;;;;;;;;4938969;29;20243;-87
2024/03/03 01:36:03;;;;;;;31.80;24.07;;;;;;;;;;4923289;28;20211;-82
2024/03/03 01:38:31;;;;;;;31.30;23.20;;;;;;;;;;4925594;29;20647;-85
2024/03/03 01:41:01;;;;;;;30.00;23.47;;;;;;;;;;4941887;28;20224;-86
2024/03/03 01:43:29;;;;;;;34.40;23.93;;;;;;;;;;4908952;28;20235;-85
2024/03/03 01:45:54;;;;;;;32.03;23.27;;;;;;;;;;4917921;29;20230;-86
2024/03/03 01:48:20;;;;;;;31.37;24.00;;;;;;;;;;4932986;28;20231;-85
2024/03/03 01:50:50;;;;;;;34.20;25.00;;;;;;;;;;4908499;28;20350;-85
2024/03/03 01:53:18;;;;;;;33.53;24.67;;;;;;;;;;4906913;28;20227;-87
2024/03/03 01:55:48;;;;;;;31.03;23.33;;;;;;;;;;4929284;29;20219;-84
2024/03/03 01:58:16;;;;;;;29.47;23.43;;;;;;;;;;4922399;28;20287;-85
2024/03/03 02:00:42;;;;;;;34.87;24.80;;;;;;;;;;4926969;29;20246;-86
2024/03/03 02:03:08;;;;;;;36.60;25.40;;;;;;;;;;4910299;28;20231;-86
2024/03/03 02:05:35;;;;;;;33.73;25.50;;;;;;;;;;4885548;29;20240;-86
2024/03/03 02:08:06;;;;;;;34.50;25.00;;;;;;;;;;4931818;28;20227;-84
2024/03/03 02:10:32;;;;;;;34.67;25.03;;;;;;;;;;4900442;29;20219;-86
2024/03/03 02:13:00;;;;;;;32.70;24.80;;;;;;;;;;4899499;29;20242;-85
2024/03/03 02:15:29;;;;;;;35.47;26.37;;;;;;;;;;4907854;28;20230;-84
2024/03/03 02:17:54;;;;;;;32.70;25.23;;;;;;;;;;4929590;29;20216;-85
2024/03/03 02:20:23;;;;;;;35.03;24.83;;;;;;;;;;4914894;28;20294;-86
2024/03/03 02:22:51;;;;;;;36.03;25.93;;;;;;;;;;4934291;29;20907;-86
2024/03/03 02:25:20;;;;;;;37.80;27.07;;;;;;;;;;4933133;28;20246;-85
2024/03/03 02:27:48;;;;;;;37.27;26.53;;;;;;;;;;4911726;29;20239;-86
2024/03/03 02:30:13;;;;;;;36.43;26.33;;;;;;;;;;4913654;28;20238;-87
2024/03/03 02:32:39;;;;;;;38.87;27.03;;;;;;;;;;4930040;29;20235;-87
2024/03/03 02:35:04;;;;;;;36.40;26.60;;;;;;;;;;4894695;28;20219;-86
2024/03/03 02:37:30;;;;;;;35.73;26.07;;;;;;;;;;4904137;29;20227;-84
2024/03/03 02:39:56;;;;;;;37.70;27.07;;;;;;;;;;4928047;29;20227;-86
2024/03/03 02:42:23;;;;;;;37.77;26.83;;;;;;;;;;4938081;28;20642;-87
2024/03/03 02:44:49;;;;;;;38.77;26.87;;;;;;;;;;4917697;29;20219;-86
2024/03/03 02:47:19;;;;;;;37.83;28.23;;;;;;;;;;4918007;28;20266;-86
2024/03/03 02:49:45;;;;;;;40.17;27.53;;;;;;;;;;4928532;29;20228;-87
2024/03/03 02:52:12;;;;;;;40.93;28.20;;;;;;;;;;4913380;28;20279;-86
2024/03/03 02:54:38;;;;;;;38.20;27.87;;;;;;;;;;4916349;29;20282;-85
2024/03/03 02:57:04;;;;;;;41.60;27.63;;;;;;;;;;4890671;28;20224;-86
2024/03/03 02:59:29;;;;;;;39.80;28.63;;;;;;;;;;4914916;29;20230;-85
2024/03/03 03:01:55;;;;;;;42.43;27.77;;;;;;;;;;4906183;29;20224;-84
2024/03/03 03:04:20;;;;;;;39.13;28.30;;;;;;;;;;4925067;28;20224;-85
2024/03/03 03:06:46;;;;;;;42.33;29.13;;;;;;;;;;4912215;29;20234;-85
2024/03/03 03:09:14;;;;;;;39.73;29.63;;;;;;;;;;4910752;28;20251;-84
2024/03/03 03:11:40;;;;;;;43.20;28.87;;;;;;;;;;4891772;29;20306;-85
2024/03/03 03:14:05;;;;;;;40.43;28.57;;;;;;;;;;4926202;28;20233;-84
2024/03/03 03:16:36;;;;;;;39.43;29.03;;;;;;;;;;4921282;29;20228;-86
2024/03/03 03:19:01;;;;;;;43.87;30.27;;;;;;;;;;4905183;29;20227;-86
2024/03/03 03:21:27;;;;;;;40.47;28.47;;;;;;;;;;4923705;28;20274;-86
2024/03/03 03:23:54;;;;;;;39.10;27.80;;;;;;;;;;4905646;29;20218;-86
2024/03/03 03:26:23;;;;;;;41.40;29.90;;;;;;;;;;4924960;28;20235;-84
2024/03/03 03:28:51;;;;;;;39.90;29.77;;;;;;;;;;4887642;29;20229;-85
2024/03/03 03:31:16;;;;;;;43.53;28.83;;;;;;;;;;4914710;28;20242;-85
2024/03/03 03:33:45;;;;;;;45.67;31.13;;;;;;;;;;4928191;28;20219;-85
2024/03/03 03:36:10;;;;;;;46.57;31.63;;;;;;;;;;4919959;28;20287;-86
2024/03/03 03:38:41;;;;;;;45.70;31.73;;;;;;;;;;4936216;29;20227;-85
2024/03/03 03:41:09;;;;;;;49.67;32.33;;;;;;;;;;4887737;29;20235;-86
2024/03/03 03:43:35;;;;;;;51.33;33.37;;;;;;;;;;4918413;29;20326;-84
2024/03/03 03:46:00;;;;;;;56.17;34.93;;;;;;;;;;4906042;29;20223;-86
2024/03/03 03:48:28;;;;;;;52.50;34.67;;;;;;;;;;4929843;29;20721;-87
2024/03/03 03:50:54;;;;;;;52.97;33.87;;;;;;;;;;4889153;29;20242;-85
2024/03/03 03:53:21;;;;;;;50.93;34.33;;;;;;;;;;4908628;28;20855;-84
2024/03/03 03:55:49;;;;;;;54.60;33.63;;;;;;;;;;4906238;29;20224;-84
2024/03/03 04:02:06;;;;;;;53.50;34.17;;;;;;;;;;4936706;28;20275;-85
2024/03/03 04:04:34;;;;;;;52.63;35.50;;;;;;;;;;4906870;29;20635;-87
2024/03/03 04:07:04;;;;;;;55.90;36.07;;;;;;;;;;4922332;29;20211;-85
2024/03/03 04:09:31;;;;;;;59.23;36.87;;;;;;;;;;4914044;29;20612;-86
2024/03/03 04:11:57;;;;;;;59.97;37.03;;;;;;;;;;4911180;29;20234;-86
2024/03/03 04:14:25;;;;;;;57.63;37.50;;;;;;;;;;4925631;28;20227;-86
2024/03/03 04:16:50;;;;;;;57.53;36.20;;;;;;;;;;4909230;29;20223;-86
2024/03/03 04:19:18;;;;;;;60.53;36.63;;;;;;;;;;4929099;28;20243;-88
2024/03/03 04:21:46;;;;;;;55.10;36.13;;;;;;;;;;4893512;29;20219;-86
2024/03/03 04:24:12;;;;;;;60.53;36.97;;;;;;;;;;4916903;28;20249;-86
2024/03/03 04:26:37;;;;;;;60.17;37.23;;;;;;;;;;4917525;29;20230;-87
2024/03/03 04:29:05;;;;;;;62.23;38.47;;;;;;;;;;4921890;28;20249;-83
2024/03/03 04:31:31;;;;;;;57.77;37.13;;;;;;;;;;4935712;28;20769;-85
2024/03/03 04:33:59;;;;;;;59.27;38.77;;;;;;;;;;4930410;28;20215;-84
2024/03/03 04:36:25;;;;;;;59.30;37.67;;;;;;;;;;4909320;28;20250;-85
2024/03/03 04:38:50;;;;;;;61.77;37.57;;;;;;;;;;4927255;29;20311;-86
2024/03/03 04:41:23;;;;;;;54.83;36.73;;;;;;;;;;4927085;28;20286;-85
2024/03/03 04:43:49;;;;;;;58.63;38.17;;;;;;;;;;4928363;29;20232;-85
2024/03/03 04:46:15;;;;;;;59.67;37.97;;;;;;;;;;4918080;28;20226;-86
2024/03/03 04:48:42;;;;;;;59.87;38.80;;;;;;;;;;4926825;29;20306;-86
2024/03/03 04:51:08;;;;;;;54.27;36.40;;;;;;;;;;4924851;28;21046;-86
2024/03/03 04:53:34;;;;;;;54.10;36.93;;;;;;;;;;4905259;29;20223;-85
2024/03/03 04:56:02;;;;;;;61.67;39.63;;;;;;;;;;4934913;29;20268;-86
2024/03/03 04:58:27;;;;;;;58.10;38.13;;;;;;;;;;4915569;29;20756;-85
2024/03/03 05:00:55;;;;;;;59.73;37.43;;;;;;;;;;4920320;29;20223;-84
2024/03/03 05:03:24;;;;;;;56.47;37.83;;;;;;;;;;4908666;28;20238;-84
2024/03/03 05:05:53;;;;;;;54.17;38.00;;;;;;;;;;4927988;29;20636;-85
2024/03/03 05:08:19;;;;;;;55.77;36.43;;;;;;;;;;4911425;28;20235;-83
2024/03/03 05:10:44;;;;;;;58.97;37.53;;;;;;;;;;4906224;29;20230;-84
2024/03/03 05:13:10;;;;;;;51.70;36.13;;;;;;;;;;4900899;28;20231;-85
2024/03/03 05:15:36;;;;;;;58.23;36.73;;;;;;;;;;4910734;29;20227;-86
2024/03/03 05:18:01;;;;;;;49.87;34.43;;;;;;;;;;4905594;29;20909;-84
2024/03/03 05:20:27;;;;;;;52.07;35.33;;;;;;;;;;4906717;28;20219;-86
2024/03/03 05:22:57;;;;;;;50.97;34.93;;;;;;;;;;4886200;29;20603;-86
2024/03/03 05:25:23;;;;;;;49.50;35.43;;;;;;;;;;4925127;28;20313;-86
2024/03/03 05:27:56;;;;;;;49.47;34.13;;;;;;;;;;4921611;29;20238;-86
2024/03/03 05:30:21;;;;;;;50.53;34.27;;;;;;;;;;4905767;29;20264;-85
2024/03/03 05:32:47;;;;;;;55.77;35.90;;;;;;;;;;4911161;29;20323;-85
2024/03/03 05:35:12;;;;;;;49.60;35.40;;;;;;;;;;4909343;28;20307;-86
2024/03/03 05:37:40;;;;;;;51.83;35.60;;;;;;;;;;4925025;29;20230;-85
2024/03/03 05:40:08;;;;;;;52.90;35.23;;;;;;;;;;4921866;28;20255;-85
2024/03/03 05:42:36;;;;;;;53.53;35.63;;;;;;;;;;4909476;29;20238;-85
2024/03/03 05:45:02;;;;;;;52.13;36.60;;;;;;;;;;4935810;29;20301;-84
2024/03/03 05:47:30;;;;;;;55.53;36.27;;;;;;;;;;4912701;29;20531;-85
2024/03/03 05:49:55;;;;;;;57.73;36.67;;;;;;;;;;4912205;29;20324;-85
2024/03/03 05:52:21;;;;;;;55.77;37.37;;;;;;;;;;4912879;29;20311;-85
2024/03/03 05:54:49;;;;;;;55.40;36.60;;;;;;;;;;4913135;29;20371;-85
2024/03/03 05:57:16;;;;;;;57.70;37.07;;;;;;;;;;4907941;28;20224;-85
2024/03/03 05:59:42;;;;;;;57.23;36.00;;;;;;;;;;4907593;29;20235;-85
2024/03/03 06:02:07;;;;;;;55.77;37.10;;;;;;;;;;4923441;28;20226;-85
2024/03/03 06:04:35;;;;;;;54.10;35.67;;;;;;;;;;4886352;29;20216;-84
2024/03/03 06:07:04;;;;;;;62.97;37.83;;;;;;;;;;4923619;29;20226;-85
2024/03/03 06:09:32;;;;;;;53.90;36.13;;;;;;;;;;4916968;29;20243;-85
2024/03/03 06:12:01;;;;;;;53.77;37.20;;;;;;;;;;4926723;29;20243;-87
2024/03/03 06:14:27;;;;;;;57.10;37.17;;;;;;;;;;4936279;28;20254;-86
2024/03/03 06:16:57;;;;;;;54.43;36.50;;;;;;;;;;4921941;29;20218;-85
2024/03/03 06:19:25;;;;;;;53.77;34.57;;;;;;;;;;4930824;28;20231;-86
2024/03/03 06:21:53;;;;;;;57.67;36.00;;;;;;;;;;4929483;29;20219;-83
2024/03/03 06:24:21;;;;;;;55.23;35.53;;;;;;;;;;4913178;28;20286;-85
2024/03/03 06:26:49;;;;;;;53.17;34.33;;;;;;;;;;4916184;29;20223;-84
2024/03/03 06:29:19;;;;;;;54.13;36.60;;;;;;;;;;4926086;28;20235;-84
2024/03/03 06:31:47;;;;;;;49.60;34.23;;;;;;;;;;4919838;29;20583;-86
2024/03/03 06:34:13;;;;;;;53.43;36.40;;;;;;;;;;4911724;28;20261;-87
2024/03/03 06:36:39;;;;;;;53.97;36.13;;;;;;;;;;4895803;29;20247;-85
2024/03/03 06:39:10;;;;;;;59.17;37.43;;;;;;;;;;4941585;28;21128;-85
2024/03/03 06:41:35;;;;;;;61.03;38.47;;;;;;;;;;4912962;29;20234;-85
2024/03/03 06:44:02;;;;;;;58.03;37.73;;;;;;;;;;4911631;29;20219;-84
2024/03/03 06:46:28;;;;;;;50.13;35.17;;;;;;;;;;4907000;29;20266;-85
2024/03/03 06:48:54;;;;;;;58.93;36.77;;;;;;;;;;4924407;29;20607;-85
2024/03/03 06:51:24;;;;;;;55.87;36.80;;;;;;;;;;4925674;29;20224;-86
2024/03/03 06:53:50;;;;;;;49.57;34.73;;;;;;;;;;4930887;29;20232;-85
2024/03/03 06:56:18;;;;;;;48.53;33.03;;;;;;;;;;4910818;29;20224;-85
2024/03/03 06:58:47;;;;;;;44.83;31.03;;;;;;;;;;4912040;29;20295;-83
2024/03/03 07:01:12;;;;;;;43.17;31.30;;;;;;;;;;4936903;28;20230;-83
2024/03/03 07:06:15;;;;;;;41.03;28.53;;;;;;;;;;4912884;28;20224;-84
2024/03/03 07:08:41;;;;;;;50.20;34.10;;;;;;;;;;4936762;28;20228;-86
2024/03/03 07:11:09;;;;;;;43.17;32.40;;;;;;;;;;4922176;28;20231;-84
2024/03/03 07:13:37;;;;;;;45.77;33.13;;;;;;;;;;4922273;29;20228;-85
2024/03/03 07:16:03;;;;;;;50.47;34.40;;;;;;;;;;4907877;28;20748;-83
2024/03/03 07:18:29;;;;;;;50.40;35.47;;;;;;;;;;4928672;29;20239;-85
2024/03/03 07:20:57;;;;;;;55.47;37.43;;;;;;;;;;4913769;29;20248;-86
2024/03/03 07:23:23;;;;;;;51.93;36.43;;;;;;;;;;4922534;28;20241;-86
2024/03/03 07:25:51;;;;;;;51.83;35.70;;;;;;;;;;4922636;29;20216;-86
2024/03/03 07:28:16;;;;;;;56.97;37.03;;;;;;;;;;4910952;29;20327;-85
2024/03/03 07:30:42;;;;;;;59.67;39.07;;;;;;;;;;4946374;28;20226;-85
2024/03/03 07:33:08;;;;;;;57.60;39.10;;;;;;;;;;4926839;28;20235;-85
2024/03/03 07:35:34;;;;;;;62.33;40.70;;;;;;;;;;4905283;29;20989;-86
2024/03/03 07:38:00;;;;;;;66.60;43.07;;;;;;;;;;4923098;29;20215;-84
2024/03/03 07:40:29;;;;;;;65.10;41.37;;;;;;;;;;4923672;28;20220;-86
2024/03/03 07:42:57;;;;;;;66.87;43.03;;;;;;;;;;4927525;28;20259;-86
2024/03/03 07:45:22;;;;;;;72.67;45.27;;;;;;;;;;4913083;28;20231;-85
2024/03/03 07:47:50;;;;;;;70.10;44.03;;;;;;;;;;4927872;29;20227;-85
2024/03/03 07:50:16;;;;;;;73.73;44.40;;;;;;;;;;4897705;28;20227;-85
2024/03/03 07:52:44;;;;;;;66.83;45.27;;;;;;;;;;4929869;28;20227;-83
2024/03/03 07:55:11;;;;;;;74.27;45.27;;;;;;;;;;4928496;28;20228;-84
2024/03/03 07:57:37;;;;;;;66.73;44.07;;;;;;;;;;4903260;29;20231;-85
2024/03/03 08:00:06;;;;;;;69.97;45.43;;;;;;;;;;4930137;29;20219;-86
2024/03/03 08:02:38;;;;;;;67.90;44.20;;;;;;;;;;4927454;29;20306;-86
2024/03/03 08:05:06;;;;;;;68.43;44.87;;;;;;;;;;4910492;28;20366;-85
2024/03/03 08:07:34;;;;;;;61.93;43.67;;;;;;;;;;4915540;29;20228;-85
2024/03/03 08:10:03;;;;;;;69.70;45.27;;;;;;;;;;4916009;29;20235;-85
2024/03/03 08:12:31;;;;;;;66.97;45.53;;;;;;;;;;4907533;29;20250;-85
2024/03/03 08:14:57;;;;;;;68.80;44.97;;;;;;;;;;4900417;29;20729;-83
2024/03/03 08:17:25;;;;;;;68.20;44.70;;;;;;;;;;4942093;28;20242;-83
2024/03/03 08:19:53;;;;;;;68.23;45.23;;;;;;;;;;4926638;29;20341;-84
2024/03/03 08:22:18;;;;;;;66.00;44.80;;;;;;;;;;4923268;28;20244;-86
2024/03/03 08:24:44;;;;;;;67.10;45.03;;;;;;;;;;4940386;28;20216;-85
2024/03/03 08:27:12;;;;;;;61.27;44.30;;;;;;;;;;4934359;28;20224;-86
2024/03/03 08:29:38;;;;;;;60.53;44.50;;;;;;;;;;4902261;29;20281;-85
2024/03/03 08:32:06;;;;;;;62.50;44.63;;;;;;;;;;4951455;28;20318;-85
2024/03/03 08:34:31;;;;;;;57.83;43.70;;;;;;;;;;4946421;28;20314;-85
2024/03/03 08:37:02;;;;;;;59.50;41.77;;;;;;;;;;4935137;29;20266;-86
2024/03/03 08:39:30;;;;;;;54.37;41.33;;;;;;;;;;4918017;29;20642;-85
2024/03/03 08:41:58;;;;;;;55.63;41.10;;;;;;;;;;4911015;29;20231;-85
2024/03/03 08:44:23;;;;;;;54.63;40.60;;;;;;;;;;4931072;28;20240;-85
2024/03/03 08:46:50;;;;;;;52.83;40.80;;;;;;;;;;4900644;29;20295;-85
2024/03/03 08:49:19;;;;;;;51.67;39.77;;;;;;;;;;4912497;28;20240;-84
2024/03/03 08:51:45;;;;;;;49.00;38.47;;;;;;;;;;4910681;29;20215;-85
2024/03/03 08:56:42;;;;;;;49.07;37.83;;;;;;;;;;5020711;27;1552317;-77
2024/03/03 08:59:10;;;;;;;46.97;38.40;;;;;;;;;;5023738;28;20234;-77
2024/03/03 09:01:38;;;;;;;48.70;37.67;;;;;;;;;;5018355;28;20248;-77
2024/03/03 09:04:06;;;;;;;46.73;37.67;;;;;;;;;;5063832;28;20222;-77
2024/03/03 09:06:37;;;;;;;46.17;37.57;;;;;;;;;;5067584;28;20700;-77
2024/03/03 09:09:03;;;;;;;45.57;37.43;;;;;;;;;;5069353;28;20792;-77
2024/03/03 09:11:32;;;;;;;45.17;36.70;;;;;;;;;;5051033;28;20229;-77
2024/03/03 09:14:01;;;;;;;42.60;36.77;;;;;;;;;;5050681;28;20266;-77
2024/03/03 09:16:27;;;;;;;46.77;36.90;;;;;;;;;;5067079;28;20244;-78
2024/03/03 09:18:55;;;;;;;43.53;35.73;;;;;;;;;;5068051;28;20233;-78
2024/03/03 09:21:23;;;;;;;43.53;35.27;;;;;;;;;;5051101;28;20222;-78
2024/03/03 09:23:49;;;;;;;41.43;34.93;;;;;;;;;;5067305;28;20687;-78
2024/03/03 09:26:20;;;;;;;44.10;35.83;;;;;;;;;;5051307;28;20615;-79
2024/03/03 09:28:45;;;;;;;39.93;35.03;;;;;;;;;;5081537;28;20233;-78
2024/03/03 09:31:14;;;;;;;41.50;34.83;;;;;;;;;;5051733;28;20252;-79
2024/03/03 09:33:45;;;;;;;44.47;34.50;;;;;;;;;;5067255;28;20213;-77
2024/03/03 09:36:11;;;;;;;40.57;34.90;;;;;;;;;;5081687;28;20249;-78
2024/03/03 09:38:39;;;;;;;46.17;36.13;;;;;;;;;;5051644;28;20233;-77
2024/03/03 09:41:04;;;;;;;40.67;34.80;;;;;;;;;;5082182;28;20230;-77
2024/03/03 09:43:35;;;;;;;39.67;34.27;;;;;;;;;;5099303;28;20583;-77
2024/03/03 09:46:06;;;;;;;43.53;34.30;;;;;;;;;;5051783;28;20221;-77
2024/03/03 09:48:32;;;;;;;41.13;34.13;;;;;;;;;;5084312;28;20604;-77
2024/03/03 09:51:00;;;;;;;38.67;33.73;;;;;;;;;;5051978;28;20218;-78
2024/03/03 09:53:28;;;;;;;39.13;34.37;;;;;;;;;;5052052;28;20438;-79
2024/03/03 09:55:57;;;;;;;36.30;32.10;;;;;;;;;;5053392;28;20710;-77
2024/03/03 09:58:27;;;;;;;37.43;32.50;;;;;;;;;;5052455;28;20229;-78
2024/03/03 10:00:57;;;;;;;37.40;32.57;;;;;;;;;;5051349;28;20714;-77
2024/03/03 10:03:23;;;;;;;36.73;32.37;;;;;;;;;;5083857;28;22433;-77
2024/03/03 10:05:51;;;;;;;37.60;32.13;;;;;;;;;;5048943;28;20210;-77
2024/03/03 10:08:21;;;;;;;38.23;30.47;;;;;;;;;;5052736;28;20222;-78
2024/03/03 10:10:47;;;;;;;34.53;30.87;;;;;;;;;;5037691;28;20256;-79
2024/03/03 10:13:17;;;;;;;33.10;29.50;;;;;;;;;;5071861;28;20214;-79
2024/03/03 10:15:45;;;;;;;32.50;28.83;;;;;;;;;;5071492;28;20226;-77
2024/03/03 10:18:13;;;;;;;33.80;28.73;;;;;;;;;;5041775;28;20218;-78
2024/03/03 10:20:38;;;;;;;32.57;27.07;;;;;;;;;;5037328;28;20214;-77
2024/03/03 10:23:05;;;;;;;30.73;26.90;;;;;;;;;;5037485;28;20218;-79
2024/03/03 10:25:31;;;;;;;29.93;26.63;;;;;;;;;;5070145;28;20616;-78
2024/03/03 10:28:15;;;;;;;29.60;26.40;;;;;;;;;;5037339;28;20229;-79
2024/03/03 10:30:41;;;;;;;30.63;26.37;;;;;;;;;;5056963;28;20735;-78
2024/03/03 10:33:07;;;;;;;26.70;23.73;;;;;;;;;;5060727;28;20222;-78
2024/03/03 10:35:34;;;;;;;27.00;24.17;;;;;;;;;;5054450;28;20227;-78
2024/03/03 10:38:04;;;;;;;25.70;23.00;;;;;;;;;;5043243;28;20372;-78
2024/03/03 10:40:34;;;;;;;25.97;23.27;;;;;;;;;;5039829;28;20530;-79
2024/03/03 10:43:02;;;;;;;26.07;23.00;;;;;;;;;;5042780;28;20607;-78
2024/03/03 10:45:27;;;;;;;24.93;20.57;;;;;;;;;;5056286;28;20297;-78
2024/03/03 10:47:53;;;;;;;23.90;21.33;;;;;;;;;;5057309;28;20779;-79
2024/03/03 10:50:22;;;;;;;23.07;20.67;;;;;;;;;;5038082;28;20748;-79
2024/03/03 10:52:51;;;;;;;23.93;20.90;;;;;;;;;;5037046;28;20210;-77
2024/03/03 10:55:19;;;;;;;22.40;20.07;;;;;;;;;;5060481;28;20219;-77
2024/03/03 10:57:48;;;;;;;24.67;20.50;;;;;;;;;;5054419;28;20270;-77
2024/03/03 11:00:24;;;;;;;22.00;19.70;;;;;;;;;;5052652;28;20588;-77
2024/03/03 11:02:55;;;;;;;21.90;19.53;;;;;;;;;;5053756;28;20692;-77
2024/03/03 11:05:20;;;;;;;22.57;20.23;;;;;;;;;;5039382;28;20263;-77
2024/03/03 11:07:47;;;;;;;22.77;19.80;;;;;;;;;;5038682;28;20308;-76
2024/03/03 11:10:15;;;;;;;22.73;19.57;;;;;;;;;;5033209;28;20632;-78
2024/03/03 11:12:47;;;;;;;20.80;18.67;;;;;;;;;;5052433;28;20300;-77
2024/03/03 11:15:19;;;;;;;20.87;18.70;;;;;;;;;;5037379;28;20280;-77
2024/03/03 11:17:52;;;;;;;20.10;17.80;;;;;;;;;;5053375;28;20221;-77
2024/03/03 11:20:20;;;;;;;20.03;17.70;;;;;;;;;;5033121;28;20753;-78
2024/03/03 11:22:53;;;;;;;19.10;17.00;;;;;;;;;;5033169;28;20226;-77
2024/03/03 11:25:21;;;;;;;22.63;17.07;;;;;;;;;;5051624;28;20578;-78
2024/03/03 11:27:51;;;;;;;17.90;16.20;;;;;;;;;;5055501;28;20233;-78
2024/03/03 11:30:17;;;;;;;18.30;16.23;;;;;;;;;;5069767;28;20769;-79
2024/03/03 11:32:43;;;;;;;18.83;16.13;;;;;;;;;;5055489;28;20224;-78
2024/03/03 11:35:08;;;;;;;19.00;15.67;;;;;;;;;;5012351;28;20229;-77
2024/03/03 11:37:39;;;;;;;21.97;16.07;;;;;;;;;;5067014;28;20213;-78
2024/03/03 11:40:11;;;;;;;18.27;16.27;;;;;;;;;;5087667;28;20232;-78
2024/03/03 11:42:39;;;;;;;17.03;15.13;;;;;;;;;;5070077;28;20218;-78
2024/03/03 11:45:06;;;;;;;17.83;15.90;;;;;;;;;;5021101;28;20254;-78
2024/03/03 11:47:35;;;;;;;18.43;15.67;;;;;;;;;;5069452;28;20238;-77
2024/03/03 11:50:16;;;;;;;17.90;15.93;;;;;;;;;;5068299;28;20218;-76
2024/03/03 11:52:42;;;;;;;19.87;15.70;;;;;;;;;;5073684;28;20225;-77
2024/03/03 11:55:09;;;;;;;16.83;15.10;;;;;;;;;;5086502;28;20252;-78
2024/03/03 11:57:34;;;;;;;16.27;14.57;;;;;;;;;;5069139;28;20233;-77
2024/03/03 12:00:12;;;;;;;16.80;15.10;;;;;;;;;;5053223;28;20222;-79
2024/03/03 12:02:40;;;;;;;18.17;15.32;;;;;;;;;;5057723;28;20213;-78
2024/03/03 12:05:12;;;;;;;16.00;14.30;;;;;;;;;;5071663;28;20214;-78
2024/03/03 12:07:48;;;;;;;16.02;14.38;;;;;;;;;;5065707;28;20229;-77
2024/03/03 12:10:14;;;;;;;15.30;13.77;;;;;;;;;;5053941;28;20214;-78
2024/03/03 12:12:41;;;;;;;16.15;13.85;;;;;;;;;;5080693;28;20257;-78
2024/03/03 12:15:09;;;;;;;16.60;14.93;;;;;;;;;;5071253;28;20259;-78
2024/03/03 12:17:37;;;;;;;15.38;13.77;;;;;;;;;;5055059;28;20309;-77
2024/03/03 12:20:06;;;;;;;16.53;14.03;;;;;;;;;;5084725;28;20717;-77
2024/03/03 12:22:36;;;;;;;16.67;14.93;;;;;;;;;;5084345;28;20222;-78
2024/03/03 12:25:01;;;;;;;15.90;14.20;;;;;;;;;;5069833;28;20225;-77
2024/03/03 12:27:27;;;;;;;15.70;14.10;;;;;;;;;;5051004;28;20222;-77
2024/03/03 12:29:59;;;;;;;15.63;14.02;;;;;;;;;;5051532;28;20679;-77
2024/03/03 12:32:26;;;;;;;14.90;13.38;;;;;;;;;;5066373;28;20308;-77
2024/03/03 12:34:53;;;;;;;14.82;13.23;;;;;;;;;;5067428;28;20267;-78
2024/03/03 12:37:21;;;;;;;16.20;13.82;;;;;;;;;;5034708;28;20234;-77
2024/03/03 12:39:51;;;;;;;15.02;13.20;;;;;;;;;;5068543;28;20594;-77
2024/03/03 12:42:17;;;;;;;15.75;14.02;;;;;;;;;;5085054;28;20221;-77
2024/03/03 12:44:45;;;;;;;15.80;13.73;;;;;;;;;;5067455;28;20332;-77
2024/03/03 12:47:13;;;;;;;16.30;14.70;;;;;;;;;;5049951;28;20213;-77
2024/03/03 12:49:42;;;;;;;15.57;13.83;;;;;;;;;;5080883;28;20225;-77
2024/03/03 12:52:07;;;;;;;16.60;14.20;;;;;;;;;;5051352;28;20244;-77
2024/03/03 12:54:35;;;;;;;16.27;14.67;;;;;;;;;;5064597;28;20695;-78
2024/03/03 12:57:08;;;;;;;16.70;14.90;;;;;;;;;;5066933;28;20691;-78
2024/03/03 12:59:36;;;;;;;15.90;14.23;;;;;;;;;;5066327;28;20234;-78
2024/03/03 13:02:02;;;;;;;15.43;13.80;;;;;;;;;;5066519;28;20206;-78
2024/03/03 13:04:30;;;;;;;15.95;13.98;;;;;;;;;;5064623;28;21129;-77
2024/03/03 13:07:00;;;;;;;16.17;14.48;;;;;;;;;;5068000;28;20228;-78
2024/03/03 13:09:30;;;;;;;16.50;14.20;;;;;;;;;;5064909;28;20230;-77
2024/03/03 13:11:56;;;;;;;16.27;14.57;;;;;;;;;;5086574;28;20229;-77
2024/03/03 13:14:24;;;;;;;15.23;13.65;;;;;;;;;;5048078;28;20210;-77
2024/03/03 13:17:04;;;;;;;16.90;15.07;;;;;;;;;;5052495;28;20215;-77
2024/03/03 13:19:51;;;;;;;17.00;15.20;;;;;;;;;;5083777;28;20734;-78
2024/03/03 13:22:20;;;;;;;17.23;14.52;;;;;;;;;;5032533;28;20271;-79
2024/03/03 13:25:04;;;;;;;15.90;14.27;;;;;;;;;;5053865;28;20221;-77
2024/03/03 13:27:30;;;;;;;16.10;13.43;;;;;;;;;;5070496;28;20241;-78
2024/03/03 13:30:04;;;;;;;16.63;13.23;;;;;;;;;;5085811;28;20214;-76
2024/03/03 13:32:30;;;;;;;15.13;13.13;;;;;;;;;;5067382;28;20222;-78
2024/03/03 13:35:01;;;;;;;15.10;13.50;;;;;;;;;;5083079;28;20222;-78
2024/03/03 13:37:28;;;;;;;15.15;13.65;;;;;;;;;;5049818;28;20218;-78
2024/03/03 13:39:54;;;;;;;15.82;14.23;;;;;;;;;;5049502;28;20271;-77
2024/03/03 13:42:24;;;;;;;15.18;13.68;;;;;;;;;;5036702;28;20214;-77
2024/03/03 13:44:52;;;;;;;15.77;13.50;;;;;;;;;;5072424;28;20218;-78
2024/03/03 13:47:17;;;;;;;14.83;13.33;;;;;;;;;;5048707;28;20215;-77
2024/03/03 13:49:43;;;;;;;15.33;13.77;;;;;;;;;;5071164;28;20284;-77
2024/03/03 13:52:10;;;;;;;15.17;13.67;;;;;;;;;;5071938;28;20731;-78
2024/03/03 13:54:38;;;;;;;14.75;13.25;;;;;;;;;;5088767;28;20333;-78
2024/03/03 13:57:04;;;;;;;16.00;13.60;;;;;;;;;;5071207;28;20628;-78
2024/03/03 13:59:30;;;;;;;15.47;12.77;;;;;;;;;;5069220;28;20351;-77
2024/03/03 14:01:58;;;;;;;16.40;13.90;;;;;;;;;;5055557;28;20218;-78
2024/03/03 14:04:24;;;;;;;15.05;13.63;;;;;;;;;;5090885;28;20271;-77
2024/03/03 14:06:49;;;;;;;15.13;13.53;;;;;;;;;;5091421;28;20222;-78
2024/03/03 14:09:19;;;;;;;16.83;14.18;;;;;;;;;;5073307;28;20230;-78
2024/03/03 14:11:47;;;;;;;15.10;13.50;;;;;;;;;;5073969;28;20230;-77
2024/03/03 14:14:17;;;;;;;15.18;13.55;;;;;;;;;;5087997;28;20655;-78
2024/03/03 14:16:43;;;;;;;15.27;13.63;;;;;;;;;;5087781;28;20241;-78
2024/03/03 14:19:11;;;;;;;15.15;13.60;;;;;;;;;;5067412;28;20295;-79
2024/03/03 14:21:37;;;;;;;17.43;14.27;;;;;;;;;;5087653;28;20232;-78
2024/03/03 14:24:03;;;;;;;17.60;14.43;;;;;;;;;;5070749;28;20225;-79
2024/03/03 14:26:29;;;;;;;16.00;14.40;;;;;;;;;;5088974;28;20237;-78